Time;durP1;ratioP1;P1;durP2;ratioP2;P2;SDS_P1;SDS_P2;PMS_P1;PMS_P2;Temp;Humidity;BMP_temperature;BMP_pressure;BME280_temperature;BME280_humidity;BME280_pressure;Samples;Min_cycle;Max_cycle;Signal;HPM_P1;HPM_P2
2021/09/26 00:01:38;;;;;;;60.97;41.17;;;;;;;13.38;100.00;101052.34;2617639;31;20126;-58
2021/09/26 00:04:05;;;;;;;60.58;41.38;;;;;;;13.32;100.00;101046.22;2616313;36;20030;-59
2021/09/26 00:06:33;;;;;;;60.05;41.75;;;;;;;13.31;100.00;101047.03;2617035;31;20034;-59
2021/09/26 00:09:00;;;;;;;60.25;40.75;;;;;;;13.30;100.00;101043.59;2617043;31;20054;-54
2021/09/26 00:11:27;;;;;;;62.58;42.25;;;;;;;13.35;100.00;101043.69;2616547;36;20593;-60
2021/09/26 00:13:54;;;;;;;64.55;42.60;;;;;;;13.33;100.00;101041.09;2616297;36;20034;-55
2021/09/26 00:16:22;;;;;;;59.20;40.33;;;;;;;13.31;100.00;101040.22;2617420;31;20034;-54
2021/09/26 00:18:50;;;;;;;62.50;42.08;;;;;;;13.34;100.00;101037.69;2617730;31;20073;-58
2021/09/26 00:21:17;;;;;;;68.05;43.13;;;;;;;13.39;100.00;101042.91;2617959;31;20031;-54
2021/09/26 00:23:46;;;;;;;63.55;41.25;;;;;;;13.38;100.00;101039.47;2616520;36;20034;-54
2021/09/26 00:26:13;;;;;;;62.08;41.15;;;;;;;13.37;100.00;101036.88;2616672;36;20022;-57
2021/09/26 00:28:41;;;;;;;61.22;41.25;;;;;;;13.40;100.00;101042.06;2619561;31;20474;-59
2021/09/26 00:31:08;;;;;;;58.47;39.92;;;;;;;13.35;100.00;101033.41;2617779;31;20030;-59
2021/09/26 00:33:35;;;;;;;63.17;41.15;;;;;;;13.35;100.00;101033.41;2616907;31;20053;-55
2021/09/26 00:36:03;;;;;;;58.85;39.58;;;;;;;13.36;100.00;101036.03;2616406;36;20086;-56
2021/09/26 00:38:30;;;;;;;61.05;41.35;;;;;;;13.44;100.00;101044.72;2616577;31;20061;-61
2021/09/26 00:40:57;;;;;;;59.72;40.22;;;;;;;13.45;100.00;101045.59;2616767;36;20038;-58
2021/09/26 00:43:24;;;;;;;58.08;40.22;;;;;;;13.41;100.00;101043.84;2617150;31;20042;-56
2021/09/26 00:45:51;;;;;;;60.63;40.63;;;;;;;13.44;100.00;101043.88;2617435;31;20034;-58
2021/09/26 00:48:18;;;;;;;57.38;38.60;;;;;;;13.45;100.00;101040.44;2617507;31;20450;-57
2021/09/26 00:50:45;;;;;;;59.30;39.30;;;;;;;13.41;100.00;101036.13;2617280;31;20026;-55
2021/09/26 00:53:13;;;;;;;62.33;38.70;;;;;;;13.42;100.00;101046.44;2616416;36;20042;-58
2021/09/26 00:55:41;;;;;;;54.10;36.72;;;;;;;13.40;100.00;101048.13;2616636;36;20022;-58
2021/09/26 00:58:08;;;;;;;55.05;37.30;;;;;;;13.40;100.00;101048.13;2617954;31;20026;-53
2021/09/26 01:00:35;;;;;;;53.88;38.10;;;;;;;13.39;100.00;101051.50;2617012;31;20038;-57
2021/09/26 01:03:02;;;;;;;50.20;36.78;;;;;;;13.37;100.00;101045.47;2616636;36;20054;-56
2021/09/26 01:05:30;;;;;;;51.28;36.88;;;;;;;13.33;100.00;101042.81;2616557;36;20034;-58
2021/09/26 01:08:04;;;;;;;50.88;36.03;;;;;;;13.31;100.00;101042.78;2616494;36;20022;-58
2021/09/26 01:10:59;;;;;;;49.78;36.03;;;;;;;13.26;100.00;101036.66;2616696;31;20045;-60
2021/09/26 01:13:46;;;;;;;47.75;34.85;;;;;;;13.26;100.00;101044.38;2580595;36;2004387;-57
2021/09/26 01:16:26;;;;;;;47.35;34.25;;;;;;;13.29;100.00;101044.44;2616951;31;20030;-55
2021/09/26 01:19:15;;;;;;;49.67;34.97;;;;;;;13.28;100.00;101047.84;2618039;31;20474;-59
2021/09/26 01:21:51;;;;;;;47.67;35.58;;;;;;;13.30;100.00;101047.88;2580825;31;2004427;-54
2021/09/26 01:24:46;;;;;;;48.60;35.35;;;;;;;13.30;100.00;101053.03;2616657;36;20037;-56
2021/09/26 01:27:45;;;;;;;50.40;35.80;;;;;;;13.30;100.00;101050.44;2580057;36;2004290;-55
2021/09/26 01:30:47;;;;;;;51.28;36.42;;;;;;;13.27;100.00;101047.84;2580795;31;2004559;-54
2021/09/26 01:33:27;;;;;;;48.15;34.53;;;;;;;13.27;100.00;101047.84;2579921;36;2004395;-57
2021/09/26 01:36:04;;;;;;;46.20;33.75;;;;;;;13.25;100.00;101040.94;2616576;36;20034;-57
2021/09/26 01:38:55;;;;;;;48.00;32.63;;;;;;;13.24;100.00;101046.06;2579785;36;2004607;-53
2021/09/26 01:41:42;;;;;;;44.35;32.10;;;;;;;13.22;100.00;101040.03;2616261;31;20043;-56
2021/09/26 01:44:17;;;;;;;42.25;30.63;;;;;;;13.29;100.00;101043.56;2579694;36;2004413;-57
2021/09/26 01:46:49;;;;;;;39.92;30.88;;;;;;;13.32;100.00;101039.38;2615855;36;20041;-55
2021/09/26 01:49:23;;;;;;;43.65;30.50;;;;;;;13.32;100.00;101044.50;2616160;36;20030;-55
2021/09/26 01:51:52;;;;;;;36.95;28.83;;;;;;;13.24;100.00;101036.63;2617108;31;20029;-55
2021/09/26 01:54:22;;;;;;;41.35;30.42;;;;;;;13.27;100.00;101035.84;2616036;36;20034;-51
2021/09/26 01:56:50;;;;;;;47.65;31.92;;;;;;;13.24;100.00;101038.34;2616384;36;20438;-55
2021/09/26 01:59:20;;;;;;;41.08;31.20;;;;;;;13.27;100.00;101040.97;2616146;36;20566;-55
2021/09/26 02:01:48;;;;;;;42.08;31.48;;;;;;;13.31;100.00;101042.78;2616339;36;20513;-58
2021/09/26 02:04:20;;;;;;;39.05;28.75;;;;;;;13.31;100.00;101047.03;2616858;31;20063;-57
2021/09/26 02:06:48;;;;;;;42.08;29.73;;;;;;;13.30;100.00;101048.75;2616299;31;20038;-56
2021/09/26 02:09:16;;;;;;;36.55;29.83;;;;;;;13.33;100.00;101053.97;2616383;31;20026;-54
2021/09/26 02:11:44;;;;;;;40.40;29.35;;;;;;;13.37;100.00;101058.34;2617410;31;20479;-56
2021/09/26 02:14:13;;;;;;;37.40;29.40;;;;;;;13.39;100.00;101058.34;2616359;31;20034;-55
2021/09/26 02:16:41;;;;;;;38.70;28.73;;;;;;;13.36;100.00;101054.03;2616452;31;20065;-58
2021/09/26 02:19:10;;;;;;;40.47;30.58;;;;;;;13.35;100.00;101057.41;2616160;31;20593;-58
2021/09/26 02:21:38;;;;;;;40.72;29.52;;;;;;;13.33;100.00;101056.53;2616844;31;20454;-55
2021/09/26 02:24:05;;;;;;;38.42;30.02;;;;;;;13.39;100.00;101051.50;2616537;31;20031;-58
2021/09/26 02:26:35;;;;;;;40.78;31.30;;;;;;;13.43;100.00;101058.44;2617383;36;20089;-57
2021/09/26 02:29:03;;;;;;;41.38;30.38;;;;;;;13.41;100.00;101054.13;2616324;36;20563;-59
2021/09/26 02:31:30;;;;;;;38.53;29.73;;;;;;;13.40;100.00;101052.38;2616536;36;20062;-56
2021/09/26 02:33:57;;;;;;;41.25;31.08;;;;;;;13.43;100.00;101055.00;2616554;31;20033;-58
2021/09/26 02:36:24;;;;;;;45.22;31.45;;;;;;;13.45;100.00;101053.31;2616237;36;20038;-57
2021/09/26 02:38:51;;;;;;;46.35;32.28;;;;;;;13.47;100.00;101056.81;2617792;31;20574;-58
2021/09/26 02:41:38;;;;;;;40.35;29.90;;;;;;;13.52;100.00;101046.59;2616936;36;20054;-57
2021/09/26 02:44:05;;;;;;;;;;;;;;;13.50;100.00;101055.16;2584774;36;2004436;-57
2021/09/26 02:46:39;;;;;;;43.10;30.05;;;;;;;13.49;100.00;101053.41;2621473;36;19943;-57
2021/09/26 02:49:07;;;;;;;41.13;28.80;;;;;;;13.52;100.00;101047.47;2617332;31;20653;-59
2021/09/26 02:51:35;;;;;;;39.92;28.95;;;;;;;13.58;100.00;101051.84;2616472;36;20038;-59
2021/09/26 02:54:03;;;;;;;37.78;29.10;;;;;;;13.56;100.00;101058.69;2616066;36;20034;-55
2021/09/26 02:56:31;;;;;;;38.53;28.13;;;;;;;13.56;100.00;101059.56;2616491;31;20333;-58
2021/09/26 02:59:00;;;;;;;37.45;29.13;;;;;;;13.57;100.00;101060.41;2616082;36;20034;-57
2021/09/26 03:01:27;;;;;;;35.92;27.92;;;;;;;13.52;100.00;101060.34;2615700;36;20035;-56
2021/09/26 03:04:03;;;;;;;38.50;27.30;;;;;;;13.53;100.00;101045.75;2616637;31;20452;-56
2021/09/26 03:06:32;;;;;;;35.60;27.17;;;;;;;13.56;100.00;101053.53;2580404;31;2004196;-58
2021/09/26 03:08:59;;;;;;;32.17;26.08;;;;;;;13.54;100.00;101053.50;2617579;31;20034;-59
2021/09/26 03:11:27;;;;;;;34.25;27.05;;;;;;;13.53;100.00;101054.34;2616553;31;20027;-58
2021/09/26 03:13:54;;;;;;;36.85;27.15;;;;;;;13.56;100.00;101061.28;2617674;31;20039;-60
2021/09/26 03:16:21;;;;;;;34.90;26.85;;;;;;;13.54;100.00;101056.06;2616225;36;20041;-59
2021/09/26 03:18:48;;;;;;;32.85;25.30;;;;;;;13.54;100.00;101055.22;2617269;31;20031;-61
2021/09/26 03:21:15;;;;;;;34.78;25.90;;;;;;;13.54;100.00;101060.34;2617564;31;20034;-55
2021/09/26 03:23:42;;;;;;;35.22;26.85;;;;;;;13.57;100.00;101053.56;2616573;36;20023;-53
2021/09/26 03:26:10;;;;;;;35.60;25.95;;;;;;;13.59;100.00;101046.75;2616630;36;20484;-58
2021/09/26 03:28:37;;;;;;;40.78;27.00;;;;;;;13.60;100.00;101053.63;2616679;36;20030;-53
2021/09/26 03:31:04;;;;;;;37.78;26.45;;;;;;;13.62;100.00;101051.94;2616850;31;20030;-54
2021/09/26 03:33:31;;;;;;;37.35;26.95;;;;;;;13.58;100.00;101052.72;2616817;36;20053;-55
2021/09/26 03:35:59;;;;;;;37.80;27.38;;;;;;;13.60;100.00;101056.22;2616600;36;20035;-56
2021/09/26 03:38:26;;;;;;;38.28;27.17;;;;;;;13.59;100.00;101049.34;2616432;36;20030;-57
2021/09/26 03:40:53;;;;;;;40.22;27.20;;;;;;;13.60;100.00;101045.06;2616000;36;20042;-48
2021/09/26 03:43:20;;;;;;;36.08;27.17;;;;;;;13.63;100.00;101052.81;2615623;36;20026;-51
2021/09/26 03:45:50;;;;;;;37.50;26.70;;;;;;;13.68;100.00;101049.50;2615991;36;20474;-51
2021/09/26 03:48:24;;;;;;;37.33;27.88;;;;;;;13.69;100.00;101043.53;2615461;36;20030;-50
2021/09/26 03:50:51;;;;;;;40.00;27.25;;;;;;;13.69;100.00;101042.66;2616290;31;20030;-50
2021/09/26 03:53:19;;;;;;;37.60;26.90;;;;;;;13.66;100.00;101033.16;2615778;36;20864;-52
2021/09/26 03:55:46;;;;;;;39.28;27.50;;;;;;;13.69;100.00;101035.78;2616298;31;20671;-51
2021/09/26 03:58:13;;;;;;;40.03;28.75;;;;;;;13.68;100.00;101044.38;2616189;31;20034;-53
2021/09/26 04:00:40;;;;;;;40.35;26.73;;;;;;;13.69;100.00;101045.22;2616682;31;20590;-47
2021/09/26 04:03:08;;;;;;;38.58;26.70;;;;;;;13.67;100.00;101045.19;2615766;36;20560;-55
2021/09/26 04:05:35;;;;;;;39.38;27.77;;;;;;;13.67;100.00;101040.03;2615905;31;20055;-55
2021/09/26 04:08:02;;;;;;;41.00;28.70;;;;;;;13.63;100.00;101037.38;2615444;36;20042;-49
2021/09/26 04:10:29;;;;;;;43.75;28.63;;;;;;;13.60;100.00;101035.63;2616394;31;20061;-54
2021/09/26 04:12:56;;;;;;;40.33;28.98;;;;;;;13.59;100.00;101045.88;2616198;31;20105;-50
2021/09/26 04:15:23;;;;;;;45.45;28.92;;;;;;;13.53;100.00;101041.47;2615638;36;20046;-50
2021/09/26 04:17:51;;;;;;;41.30;29.08;;;;;;;13.52;100.00;101039.75;2615545;36;20019;-49
2021/09/26 04:20:18;;;;;;;48.28;32.22;;;;;;;13.52;100.00;101041.47;2615145;36;20038;-53
2021/09/26 04:22:45;;;;;;;47.10;31.05;;;;;;;13.51;100.00;101045.75;2615638;36;20037;-49
2021/09/26 04:25:12;;;;;;;45.65;31.67;;;;;;;13.54;100.00;101042.34;2616347;31;20586;-53
2021/09/26 04:27:40;;;;;;;48.58;30.88;;;;;;;13.54;100.00;101047.50;2616532;31;20459;-56
2021/09/26 04:30:08;;;;;;;52.60;32.47;;;;;;;13.55;100.00;101042.41;2615360;36;20046;-48
2021/09/26 04:32:36;;;;;;;50.53;32.72;;;;;;;13.56;100.00;101041.53;2616585;31;20566;-47
2021/09/26 04:35:04;;;;;;;49.55;32.20;;;;;;;13.59;100.00;101044.19;2616671;31;20104;-55
2021/09/26 04:37:32;;;;;;;53.83;34.25;;;;;;;13.62;100.00;101045.94;2615310;31;20053;-47
2021/09/26 04:39:59;;;;;;;55.10;34.22;;;;;;;13.62;100.00;101043.38;2616121;36;20450;-48
2021/09/26 04:42:26;;;;;;;55.67;34.00;;;;;;;13.63;100.00;101053.66;2615523;36;20058;-50
2021/09/26 04:44:53;;;;;;;53.72;33.72;;;;;;;13.66;100.00;101053.75;2616449;31;20039;-49
2021/09/26 04:47:20;;;;;;;58.20;34.05;;;;;;;13.65;100.00;101048.56;2616689;31;20030;-49
2021/09/26 04:49:47;;;;;;;55.15;33.40;;;;;;;13.67;100.00;101052.91;2615252;36;20034;-52
2021/09/26 04:52:14;;;;;;;53.45;33.83;;;;;;;13.67;100.00;101050.31;2616040;31;20065;-48
2021/09/26 04:54:41;;;;;;;50.75;33.38;;;;;;;13.70;100.00;101062.41;2615744;36;20038;-50
2021/09/26 04:57:08;;;;;;;50.45;33.08;;;;;;;13.69;100.00;101050.38;2615221;36;20034;-50
2021/09/26 04:59:35;;;;;;;50.75;32.28;;;;;;;13.72;100.00;101060.69;2616030;31;20034;-52
2021/09/26 05:02:03;;;;;;;51.38;32.50;;;;;;;13.71;100.00;101046.97;2616580;31;20030;-48
2021/09/26 05:04:31;;;;;;;55.53;33.85;;;;;;;13.75;100.00;101051.34;2615505;36;20041;-53
2021/09/26 05:06:58;;;;;;;53.92;32.05;;;;;;;13.72;100.00;101050.41;2615401;36;20632;-50
2021/09/26 05:09:25;;;;;;;50.33;32.50;;;;;;;13.71;100.00;101049.53;2616086;31;20218;-48
2021/09/26 05:11:54;;;;;;;52.55;33.22;;;;;;;13.68;100.00;101052.09;2615556;36;20026;-53
2021/09/26 05:14:22;;;;;;;55.85;33.65;;;;;;;13.71;100.00;101053.84;2614871;31;20477;-47
2021/09/26 05:16:49;;;;;;;56.30;35.00;;;;;;;13.76;100.00;101053.06;2615513;36;20033;-50
2021/09/26 05:19:16;;;;;;;62.22;35.00;;;;;;;13.73;100.00;101050.47;2617147;31;20034;-57
2021/09/26 05:21:44;;;;;;;61.85;34.92;;;;;;;13.69;100.00;101061.53;2619614;36;20594;-51
2021/09/26 05:24:11;;;;;;;60.13;35.13;;;;;;;13.69;100.00;101069.25;2619424;36;20022;-54
2021/09/26 05:26:38;;;;;;;56.25;33.03;;;;;;;13.70;100.00;101065.84;2619279;36;20038;-54
2021/09/26 05:29:06;;;;;;;53.42;33.08;;;;;;;13.72;100.00;101066.72;2619369;36;20589;-52
2021/09/26 05:31:34;;;;;;;66.32;35.70;;;;;;;13.78;100.00;101055.69;2615569;36;20442;-50
2021/09/26 05:34:02;;;;;;;58.08;34.25;;;;;;;13.87;100.00;101061.00;2615356;36;20058;-51
2021/09/26 05:36:29;;;;;;;57.22;34.60;;;;;;;13.90;100.00;101055.91;2615544;36;20053;-52
2021/09/26 05:38:56;;;;;;;58.97;34.47;;;;;;;13.93;100.00;101058.53;2616296;31;20038;-48
2021/09/26 05:41:23;;;;;;;57.50;33.85;;;;;;;13.95;100.00;101055.97;2615893;31;20027;-50
2021/09/26 05:43:50;;;;;;;56.75;32.33;;;;;;;13.98;100.00;101059.47;2615480;36;20037;-52
2021/09/26 05:46:17;;;;;;;65.05;36.13;;;;;;;14.03;100.00;101054.41;2615553;36;20039;-50
2021/09/26 05:48:45;;;;;;;58.67;35.38;;;;;;;14.00;100.00;101056.91;2616491;31;20431;-50
2021/09/26 05:51:12;;;;;;;56.05;33.97;;;;;;;14.01;100.00;101058.69;2615393;36;20034;-52
2021/09/26 05:53:39;;;;;;;57.35;34.53;;;;;;;14.04;100.00;101058.72;2615920;31;20554;-51
2021/09/26 05:56:06;;;;;;;54.92;33.92;;;;;;;14.05;100.00;101057.00;2615900;31;20061;-52
2021/09/26 05:58:33;;;;;;;53.17;32.58;;;;;;;14.11;100.00;101054.56;2615912;31;20042;-49
2021/09/26 06:01:00;;;;;;;59.55;34.33;;;;;;;14.21;100.00;101054.72;2615373;36;20030;-51
2021/09/26 06:03:27;;;;;;;56.08;33.25;;;;;;;14.37;100.00;101063.56;2616404;31;20479;-51
2021/09/26 06:05:55;;;;;;;53.05;31.98;;;;;;;14.84;100.00;101060.03;2615151;36;20573;-48
2021/09/26 06:08:26;;;;;;;49.10;31.45;;;;;;;14.64;100.00;101058.00;2615313;31;20022;-48
2021/09/26 06:10:54;;;;;;;45.40;31.60;;;;;;;14.81;100.00;101060.84;2615145;36;20046;-48
2021/09/26 06:13:21;;;;;;;42.15;28.98;;;;;;;14.87;100.00;101057.47;2616388;31;20030;-51
2021/09/26 06:15:48;;;;;;;37.67;27.17;;;;;;;15.06;100.00;101066.31;2616198;31;20099;-48
2021/09/26 06:18:18;;;;;;;42.45;27.70;;;;;;;15.08;100.00;101065.50;2614849;36;20042;-56
2021/09/26 06:20:46;;;;;;;32.80;25.60;;;;;;;15.99;100.00;101075.16;2616483;31;20545;-48
2021/09/26 06:23:14;;;;;;;28.75;22.50;;;;;;;15.62;100.00;101056.72;2615585;31;20030;-52
2021/09/26 06:25:42;;;;;;;28.40;22.95;;;;;;;15.47;100.00;101061.69;2615148;31;20030;-51
2021/09/26 06:28:09;;;;;;;28.17;22.27;;;;;;;16.29;100.00;101064.25;2614753;31;20090;-47
2021/09/26 06:30:37;;;;;;;25.80;20.50;;;;;;;16.70;100.00;101063.69;2615046;36;20038;-52
2021/09/26 06:33:04;;;;;;;26.73;19.98;;;;;;;16.40;100.00;101054.00;2614929;36;20057;-52
2021/09/26 06:35:32;;;;;;;22.73;18.98;;;;;;;16.11;100.00;101053.75;2615561;36;20446;-50
2021/09/26 06:38:00;;;;;;;24.15;18.92;;;;;;;15.83;100.00;101053.50;2614885;36;20038;-49
2021/09/26 06:40:27;;;;;;;27.02;20.67;;;;;;;18.47;100.00;101072.06;2615383;31;20022;-51
2021/09/26 06:42:54;;;;;;;18.05;16.15;;;;;;;19.19;100.00;101069.34;2616201;36;20042;-53
2021/09/26 06:45:22;;;;;;;19.60;15.50;;;;;;;18.01;100.00;101060.81;2615741;36;20026;-48
2021/09/26 06:47:49;;;;;;;17.65;14.52;;;;;;;17.77;100.00;101064.22;2617160;31;20400;-48
2021/09/26 06:50:16;;;;;;;20.02;16.08;;;;;;;17.19;100.00;101070.03;2616087;36;20562;-51
2021/09/26 06:52:44;;;;;;;17.65;15.75;;;;;;;16.77;100.00;101063.75;2616167;36;20022;-47
2021/09/26 06:55:11;;;;;;;18.90;16.88;;;;;;;16.55;100.00;101061.88;2616253;36;20446;-52
2021/09/26 06:57:38;;;;;;;18.77;16.45;;;;;;;16.52;100.00;101061.84;2615859;36;20919;-49
2021/09/26 07:00:07;;;;;;;25.35;16.55;;;;;;;16.42;100.00;101071.25;2615697;36;20041;-47
2021/09/26 07:02:34;;;;;;;19.10;16.52;;;;;;;16.34;100.00;101064.28;2615837;31;20072;-52
2021/09/26 07:05:02;;;;;;;20.17;17.92;;;;;;;16.32;100.00;101066.88;2616247;36;20667;-50
2021/09/26 07:07:29;;;;;;;21.35;17.42;;;;;;;16.35;100.00;101072.06;2616198;31;20035;-50
2021/09/26 07:10:01;;;;;;;21.67;17.30;;;;;;;16.37;100.00;101067.78;2615708;36;20030;-52
2021/09/26 07:12:29;;;;;;;18.17;16.27;;;;;;;16.46;100.00;101067.84;2615516;36;20026;-48
2021/09/26 07:15:00;;;;;;;18.20;16.25;;;;;;;16.47;100.00;101079.06;2616081;31;20435;-51
2021/09/26 07:17:29;;;;;;;20.30;16.35;;;;;;;16.53;100.00;101069.59;2617024;31;20226;-53
2021/09/26 07:19:56;;;;;;;18.75;14.85;;;;;;;16.62;100.00;101073.97;2615956;31;20042;-54
2021/09/26 07:22:24;;;;;;;18.98;15.15;;;;;;;16.67;100.00;101072.28;2615757;31;20041;-52
2021/09/26 07:24:54;;;;;;;17.90;16.00;;;;;;;16.72;100.00;101078.38;2617877;31;20046;-51
2021/09/26 07:27:22;;;;;;;19.45;15.75;;;;;;;16.79;100.00;101085.34;2615901;31;20023;-47
2021/09/26 07:29:51;;;;;;;17.48;14.88;;;;;;;16.80;100.00;101076.72;2615656;36;20046;-49
2021/09/26 07:32:18;;;;;;;16.52;14.73;;;;;;;16.87;100.00;101079.34;2616257;31;20038;-51
2021/09/26 07:34:45;;;;;;;16.35;14.68;;;;;;;16.95;100.00;101075.09;2616770;31;20090;-51
2021/09/26 07:37:12;;;;;;;17.55;13.75;;;;;;;16.96;100.00;101075.13;2615653;31;20080;-53
2021/09/26 07:39:39;;;;;;;19.95;14.32;;;;;;;17.10;100.00;101080.38;2614351;36;20038;-49
2021/09/26 07:42:07;;;;;;;16.52;13.77;;;;;;;17.16;100.00;101070.03;2614072;36;20604;-54
2021/09/26 07:44:34;;;;;;;15.73;13.93;;;;;;;17.27;100.00;101083.00;2614472;31;20099;-53
2021/09/26 07:47:01;;;;;;;14.05;12.63;;;;;;;17.36;100.00;101071.84;2614279;36;20039;-56
2021/09/26 07:49:28;;;;;;;13.30;11.60;;;;;;;17.46;100.00;101074.47;2615304;31;20038;-55
2021/09/26 07:51:55;;;;;;;14.77;12.55;;;;;;;17.73;100.00;101065.03;2613715;36;20050;-51
2021/09/26 07:54:22;;;;;;;13.50;11.75;;;;;;;17.90;100.00;101071.16;2615338;36;20038;-48
2021/09/26 07:56:50;;;;;;;15.85;10.73;;;;;;;18.22;100.00;101065.16;2615592;36;20417;-53
2021/09/26 07:59:19;;;;;;;12.63;11.18;;;;;;;18.21;100.00;101071.19;2615674;36;20760;-52
2021/09/26 08:01:47;;;;;;;13.80;10.80;;;;;;;18.46;100.00;101065.13;2615828;36;20538;-53
2021/09/26 08:04:16;;;;;;;11.00;9.80;;;;;;;19.08;100.00;101071.97;2615906;31;20034;-58
2021/09/26 08:06:44;;;;;;;12.13;10.75;;;;;;;19.55;100.00;101078.72;2615348;31;20039;-55
2021/09/26 08:09:11;;;;;;;12.48;9.80;;;;;;;19.32;100.00;101071.03;2615982;31;20620;-54
2021/09/26 08:11:38;;;;;;;10.85;9.70;;;;;;;19.24;100.00;101077.13;2615717;36;20029;-51
2021/09/26 08:14:05;;;;;;;11.23;10.13;;;;;;;19.09;100.00;101075.44;2615738;36;20571;-51
2021/09/26 08:16:32;;;;;;;9.93;8.98;;;;;;;19.54;100.00;101076.97;2615885;36;20062;-52
2021/09/26 08:19:00;;;;;;;9.15;8.32;;;;;;;20.07;100.00;101073.22;2616044;31;20454;-51
2021/09/26 08:21:27;;;;;;;9.02;8.18;;;;;;;19.74;100.00;101076.06;2617541;36;20030;-54
2021/09/26 08:23:54;;;;;;;8.13;7.32;;;;;;;19.78;100.00;101069.94;2618227;36;20035;-56
2021/09/26 08:26:22;;;;;;;8.50;7.70;;;;;;;19.88;100.00;101078.56;2618979;31;20045;-54
2021/09/26 08:28:49;;;;;;;8.20;7.40;;;;;;;19.65;100.00;101076.09;2617796;36;20042;-54
2021/09/26 08:31:17;;;;;;;8.25;7.45;;;;;;;19.60;100.00;101081.31;2618922;31;20041;-57
2021/09/26 08:33:44;;;;;;;10.30;7.55;;;;;;;19.54;100.00;101079.56;2619430;31;20031;-53
2021/09/26 08:36:11;;;;;;;8.52;7.68;;;;;;;19.72;100.00;101078.63;2616637;31;20609;-51
2021/09/26 08:38:39;;;;;;;7.82;7.07;;;;;;;19.80;100.00;101087.25;2615347;36;20041;-56
2021/09/26 08:41:06;;;;;;;7.88;7.07;;;;;;;19.88;100.00;101084.63;2615221;36;20042;-50
2021/09/26 08:43:34;;;;;;;7.13;6.50;;;;;;;20.19;100.00;101079.19;2615401;36;20645;-53
2021/09/26 08:46:02;;;;;;;6.90;6.30;;;;;;;19.99;100.00;101079.34;2616497;31;20057;-53
2021/09/26 08:48:30;;;;;;;7.50;6.90;;;;;;;20.00;100.00;101068.94;2615306;36;20472;-51
2021/09/26 08:50:57;;;;;;;6.70;6.10;;;;;;;20.16;100.00;101071.44;2615211;36;20061;-51
2021/09/26 08:53:25;;;;;;;7.43;6.78;;;;;;;20.20;100.00;101071.41;2615286;36;20034;-50
2021/09/26 08:55:55;;;;;;;7.28;6.65;;;;;;;20.20;100.00;101061.00;2615523;31;20027;-55
2021/09/26 08:58:23;;;;;;;6.78;5.68;;;;;;;20.16;100.00;101045.44;2614993;36;20041;-53
2021/09/26 09:00:50;;;;;;;8.70;6.47;;;;;;;20.44;99.99;101056.44;2615079;36;20060;-52
2021/09/26 09:03:18;;;;;;;6.80;6.20;;;;;;;20.53;98.18;101056.41;2615237;31;20023;-53
2021/09/26 09:05:51;;;;;;;7.43;6.57;;;;;;;20.64;100.00;101066.69;2615555;36;20038;-51
2021/09/26 09:08:20;;;;;;;6.40;5.78;;;;;;;20.55;96.96;101060.69;2615632;31;20053;-55
2021/09/26 09:10:55;;;;;;;5.57;5.07;;;;;;;20.71;93.91;101066.63;2615044;36;20034;-51
2021/09/26 09:13:43;;;;;;;6.10;5.57;;;;;;;20.81;94.49;101080.41;2615530;36;20035;-53
2021/09/26 09:16:13;;;;;;;5.40;4.88;;;;;;;20.89;92.99;101072.50;2579276;31;2004550;-51
2021/09/26 09:18:44;;;;;;;6.10;5.60;;;;;;;20.97;91.50;101070.69;2615493;31;20066;-51
2021/09/26 09:21:34;;;;;;;6.00;5.40;;;;;;;21.31;89.46;101064.25;2615961;31;20053;-52
2021/09/26 09:24:25;;;;;;;5.57;5.07;;;;;;;21.96;85.32;101059.00;2579215;36;2004610;-56
2021/09/26 09:26:54;;;;;;;6.40;5.32;;;;;;;22.75;85.37;101058.56;2615449;36;20029;-53
2021/09/26 09:29:23;;;;;;;5.38;4.88;;;;;;;23.14;84.94;101059.53;2615826;36;20034;-52
2021/09/26 09:31:56;;;;;;;5.78;5.10;;;;;;;23.27;80.01;101053.16;2615100;36;20035;-55
2021/09/26 09:34:37;;;;;;;6.85;5.00;;;;;;;23.04;81.63;101058.00;2616298;31;20045;-54
2021/09/26 09:37:16;;;;;;;5.13;4.63;;;;;;;23.57;76.35;101059.50;2579130;36;2004544;-52
2021/09/26 09:40:16;;;;;;;5.63;4.30;;;;;;;23.45;78.48;101067.59;2616000;31;20034;-54
